Time;durP1;ratioP1;P1;durP2;ratioP2;P2;SDS_P1;SDS_P2;PMS_P1;PMS_P2;Temp;Humidity;BMP_temperature;BMP_pressure;BME280_temperature;BME280_humidity;BME280_pressure;Samples;Min_cycle;Max_cycle;Signal;HPM_P1;HPM_P2
2021/03/10 00:01:24;;;;;;;96.45;36.40;;;;;;;-1.05;52.84;100624.84;147912;1144;104492;-80
2021/03/10 00:04:27;;;;;;;110.77;40.83;;;;;;;-1.05;52.33;100632.70;147760;1143;104852;-80
2021/03/10 00:07:30;;;;;;;154.87;56.53;;;;;;;-1.06;51.79;100623.13;147821;1143;104611;-79
2021/03/10 00:10:34;;;;;;;150.40;48.92;;;;;;;-1.07;52.58;100624.91;147808;1143;104493;-79
2021/03/10 00:13:37;;;;;;;133.55;45.30;;;;;;;-1.04;51.89;100623.91;147791;1144;104469;-79
2021/03/10 00:16:40;;;;;;;144.57;51.88;;;;;;;-1.03;53.14;100623.84;147797;1144;104447;-81
2021/03/10 00:19:44;;;;;;;115.08;38.83;;;;;;;-1.03;53.17;100625.62;147773;1143;104543;-78
2021/03/10 00:22:48;;;;;;;97.42;37.08;;;;;;;-1.02;53.34;100627.30;147766;1143;104631;-80
2021/03/10 00:25:51;;;;;;;114.47;43.07;;;;;;;-1.04;52.17;100621.29;147827;1144;104534;-79
2021/03/10 00:28:54;;;;;;;117.67;42.43;;;;;;;-1.08;52.49;100615.38;147751;1144;104513;-79
2021/03/10 00:31:58;;;;;;;96.37;37.23;;;;;;;-1.10;52.54;100613.72;147885;1144;104488;-80
2021/03/10 00:35:02;;;;;;;101.53;40.97;;;;;;;-1.10;53.25;100613.72;147874;1144;104458;-84
2021/03/10 00:38:06;;;;;;;97.22;36.83;;;;;;;-1.11;52.48;100615.50;147918;1144;104526;-79
2021/03/10 00:41:09;;;;;;;87.20;34.43;;;;;;;-1.13;51.99;100613.87;147854;1144;104477;-76
2021/03/10 00:44:12;;;;;;;92.50;36.90;;;;;;;-1.10;52.96;100616.34;147830;1143;104457;-77
2021/03/10 00:47:16;;;;;;;92.27;34.70;;;;;;;-1.08;51.98;100617.12;147753;1144;104466;-78
2021/03/10 00:50:21;;;;;;;82.17;32.23;;;;;;;-1.08;53.17;100607.52;147760;1145;104466;-78
2021/03/10 00:53:24;;;;;;;89.40;33.03;;;;;;;-1.09;52.25;100615.44;147837;1144;104448;-81
2021/03/10 00:56:28;;;;;;;81.57;32.53;;;;;;;-1.09;52.76;100608.42;147791;1144;104543;-76
2021/03/10 00:59:31;;;;;;;75.52;31.07;;;;;;;-1.09;52.98;100605.80;147805;1144;104841;-75
2021/03/10 01:02:34;;;;;;;87.37;32.98;;;;;;;-1.13;53.38;100609.48;147741;1144;104562;-76
2021/03/10 01:05:38;;;;;;;80.93;30.33;;;;;;;-1.10;52.53;100603.24;147776;1144;104522;-80
2021/03/10 01:08:41;;;;;;;79.10;31.20;;;;;;;-1.08;53.36;100604.89;147779;1144;104725;-77
2021/03/10 01:11:44;;;;;;;84.10;32.55;;;;;;;-1.07;53.30;100600.50;147858;1144;104470;-78
2021/03/10 01:14:48;;;;;;;76.47;32.13;;;;;;;-1.05;52.80;100604.73;147766;1143;104831;-77
2021/03/10 01:17:51;;;;;;;76.92;30.15;;;;;;;-1.07;53.67;100596.10;147707;1144;104546;-78
2021/03/10 01:20:55;;;;;;;83.17;31.67;;;;;;;-1.08;53.14;100594.42;147818;1143;104652;-79
2021/03/10 01:23:58;;;;;;;79.77;31.00;;;;;;;-1.11;53.71;100589.31;147809;1143;104489;-79
2021/03/10 01:27:02;;;;;;;75.27;29.57;;;;;;;-1.10;52.91;100603.24;147833;1143;104475;-77
2021/03/10 01:30:08;;;;;;;86.67;32.03;;;;;;;-1.08;53.32;100594.42;147742;1144;104543;-76
2021/03/10 01:33:11;;;;;;;69.85;29.70;;;;;;;-1.10;52.68;100587.53;147807;1144;104464;-73
2021/03/10 01:36:15;;;;;;;75.55;30.90;;;;;;;-1.15;53.57;100589.53;147821;1144;104444;-73
2021/03/10 01:39:18;;;;;;;85.07;31.57;;;;;;;-1.20;53.66;100587.11;147783;1144;104595;-74
2021/03/10 01:42:22;;;;;;;70.87;28.85;;;;;;;-1.23;53.39;100588.11;147858;1144;104546;-75
2021/03/10 01:45:26;;;;;;;70.45;30.65;;;;;;;-1.28;53.62;100586.61;147803;1143;104470;-75
2021/03/10 01:48:30;;;;;;;86.35;33.75;;;;;;;-1.29;53.94;100577.92;147840;1143;104542;-73
2021/03/10 01:51:33;;;;;;;74.72;28.98;;;;;;;-1.28;53.88;100576.14;147876;1144;104492;-74
2021/03/10 01:54:37;;;;;;;69.90;29.72;;;;;;;-1.29;54.22;100577.92;147790;1144;104455;-74
2021/03/10 01:57:41;;;;;;;77.22;30.60;;;;;;;-1.25;52.76;100574.23;147820;1144;104583;-75
2021/03/10 02:00:44;;;;;;;71.65;29.07;;;;;;;-1.20;53.47;100576.63;147830;1144;104542;-74
2021/03/10 02:03:48;;;;;;;71.77;29.87;;;;;;;-1.22;53.11;100579.31;147786;1144;104572;-73
2021/03/10 02:07:04;;;;;;;76.20;29.35;;;;;;;-1.19;54.27;100571.33;147866;1143;104545;-74
2021/03/10 02:10:19;;;;;;;73.85;30.23;;;;;;;-1.14;53.43;100580.73;147835;1144;104570;-75
2021/03/10 02:13:36;;;;;;;69.23;28.40;;;;;;;-1.13;53.70;100566.74;147802;1144;104540;-76
2021/03/10 02:16:46;;;;;;;76.72;31.73;;;;;;;-1.14;53.79;100571.11;147789;1144;104550;-73
2021/03/10 02:20:13;;;;;;;74.15;28.55;;;;;;;-1.05;53.79;100569.84;147775;1143;104463;-76
2021/03/10 02:23:46;;;;;;;62.43;25.60;;;;;;;-1.06;54.36;100562.89;147856;1144;104908;-76
2021/03/10 02:27:32;;;;;;;67.95;27.98;;;;;;;-1.02;53.80;100570.56;147796;1144;104521;-78
2021/03/10 02:30:38;;;;;;;59.20;25.23;;;;;;;-0.97;53.98;100562.47;147765;1143;104878;-75
2021/03/10 02:33:43;;;;;;;62.62;25.15;;;;;;;-0.94;54.21;100572.82;147779;1143;104535;-78
2021/03/10 02:36:48;;;;;;;53.98;23.73;;;;;;;-0.92;54.02;100568.36;147807;1144;104478;-74
2021/03/10 02:39:53;;;;;;;55.03;22.70;;;;;;;-0.90;54.64;100569.13;147873;1143;104444;-72
2021/03/10 02:42:58;;;;;;;54.25;23.07;;;;;;;-0.88;53.85;100572.53;147812;1143;104630;-76
2021/03/10 02:46:04;;;;;;;54.85;23.42;;;;;;;-0.85;53.47;100566.28;147779;1143;104512;-76
2021/03/10 02:49:10;;;;;;;52.80;21.23;;;;;;;-0.81;54.39;100566.09;147850;1144;104494;-77
2021/03/10 02:52:15;;;;;;;53.13;22.27;;;;;;;-0.74;54.42;100565.78;147872;1143;105064;-77
2021/03/10 02:55:18;;;;;;;60.25;24.55;;;;;;;-0.74;54.19;100563.16;147855;1144;104544;-82
2021/03/10 02:58:22;;;;;;;62.40;26.20;;;;;;;-0.69;54.28;100563.80;147841;1143;104486;-79
2021/03/10 03:01:25;;;;;;;59.38;23.32;;;;;;;-0.65;54.40;100560.11;147804;1143;104534;-78
2021/03/10 03:04:29;;;;;;;59.93;25.70;;;;;;;-0.61;54.96;100564.27;147809;1143;104438;-79
2021/03/10 03:07:32;;;;;;;57.17;23.80;;;;;;;-0.57;55.04;100565.82;147782;1143;104502;-77
2021/03/10 03:10:38;;;;;;;48.87;21.48;;;;;;;-0.53;54.34;100566.52;147775;1144;104863;-81
2021/03/10 03:13:41;;;;;;;45.73;19.02;;;;;;;-0.55;55.05;100574.45;147799;1144;104646;-79
2021/03/10 03:16:47;;;;;;;51.92;20.25;;;;;;;-0.55;54.66;100569.21;147824;1144;104902;-78
2021/03/10 03:19:50;;;;;;;46.57;19.97;;;;;;;-0.60;53.47;100571.20;147760;1144;104497;-77
2021/03/10 03:22:56;;;;;;;44.05;19.87;;;;;;;-0.66;54.21;100574.12;147716;1144;104490;-78
2021/03/10 03:26:01;;;;;;;42.57;18.30;;;;;;;-0.64;53.99;100561.79;147866;1144;104556;-77
2021/03/10 03:29:07;;;;;;;49.60;21.62;;;;;;;-0.67;54.10;100575.06;147857;1144;104583;-77
2021/03/10 03:32:10;;;;;;;44.25;20.00;;;;;;;-0.65;54.95;100568.81;147863;1143;104594;-77
2021/03/10 03:35:17;;;;;;;41.25;19.07;;;;;;;-0.64;54.67;100564.41;147799;1145;104556;-74
2021/03/10 03:38:22;;;;;;;50.25;20.45;;;;;;;-0.66;54.87;100563.64;147777;1143;104508;-74
2021/03/10 03:41:25;;;;;;;44.48;19.92;;;;;;;-0.70;55.06;100562.09;147878;1144;104470;-74
2021/03/10 03:44:28;;;;;;;39.55;18.45;;;;;;;-0.69;55.44;100567.27;147815;1144;104643;-73
2021/03/10 03:47:33;;;;;;;42.73;17.65;;;;;;;-0.69;55.43;100563.80;147837;1144;104524;-75
2021/03/10 03:50:36;;;;;;;44.15;18.85;;;;;;;-0.67;54.36;100570.66;147758;1144;104527;-79
2021/03/10 03:53:40;;;;;;;41.33;18.55;;;;;;;-0.66;55.61;100569.72;147846;1143;104464;-75
2021/03/10 03:56:43;;;;;;;40.38;16.87;;;;;;;-0.67;54.84;100559.34;147840;1144;104541;-76
2021/03/10 03:59:46;;;;;;;38.50;16.85;;;;;;;-0.65;54.53;100563.57;147816;1143;104605;-79
2021/03/10 04:02:50;;;;;;;40.90;18.95;;;;;;;-0.67;55.47;100569.81;147840;1144;104525;-75
2021/03/10 04:05:53;;;;;;;40.65;18.85;;;;;;;-0.69;54.46;100567.27;147856;1143;104486;-75
2021/03/10 04:08:56;;;;;;;46.17;17.13;;;;;;;-0.69;55.55;100569.05;147966;1144;104457;-75
2021/03/10 04:12:02;;;;;;;43.85;18.70;;;;;;;-0.72;54.82;100571.80;147931;1144;104652;-75
2021/03/10 04:15:07;;;;;;;41.30;17.82;;;;;;;-0.77;55.47;100573.78;147862;1142;104428;-75
2021/03/10 04:18:10;;;;;;;41.83;17.87;;;;;;;-0.85;54.87;100575.02;147843;1144;104582;-76
2021/03/10 04:21:14;;;;;;;41.15;17.30;;;;;;;-0.92;54.65;100572.75;147840;1144;104452;-78
2021/03/10 04:24:17;;;;;;;41.10;18.35;;;;;;;-0.97;55.18;100570.33;147816;1143;104524;-75
2021/03/10 04:27:20;;;;;;;42.25;17.52;;;;;;;-1.04;53.99;100574.15;147827;1144;104553;-81
2021/03/10 04:30:25;;;;;;;40.47;18.00;;;;;;;-1.15;55.33;100574.66;147811;1143;104630;-76
2021/03/10 04:33:28;;;;;;;36.40;15.67;;;;;;;-1.22;54.06;100575.85;147881;1143;104495;-78
2021/03/10 04:36:31;;;;;;;39.70;16.13;;;;;;;-1.29;54.67;100572.68;147749;1143;104577;-74
2021/03/10 04:39:35;;;;;;;42.53;18.62;;;;;;;-1.36;55.23;100573.88;147751;1143;104526;-77
2021/03/10 04:42:38;;;;;;;37.30;16.32;;;;;;;-1.42;55.46;100566.30;147685;1144;104502;-77
2021/03/10 04:45:41;;;;;;;37.30;17.05;;;;;;;-1.47;54.64;100573.50;147716;1144;104612;-76
2021/03/10 04:48:45;;;;;;;41.85;18.05;;;;;;;-1.53;55.62;100569.38;147751;1144;104674;-76
2021/03/10 04:51:48;;;;;;;32.95;14.45;;;;;;;-1.59;54.52;100561.81;147828;1144;104535;-71
2021/03/10 04:54:51;;;;;;;41.98;17.25;;;;;;;-1.64;55.64;100567.23;147688;1144;104522;-74
2021/03/10 04:57:55;;;;;;;40.63;16.75;;;;;;;-1.71;55.24;100565.83;147720;1144;104575;-76
2021/03/10 05:00:58;;;;;;;38.70;15.88;;;;;;;-1.79;55.28;100567.90;147848;1143;104620;-77
2021/03/10 05:04:01;;;;;;;36.55;17.20;;;;;;;-1.88;55.04;100569.16;147818;1144;104633;-78
2021/03/10 05:07:05;;;;;;;44.38;18.77;;;;;;;-1.94;55.54;100573.79;147708;1144;104564;-77
2021/03/10 05:10:10;;;;;;;35.03;15.05;;;;;;;-1.99;54.70;100576.61;147782;1144;104460;-77
2021/03/10 05:13:14;;;;;;;42.15;16.82;;;;;;;-2.04;54.69;100576.82;147841;1144;104552;-76
2021/03/10 05:16:17;;;;;;;43.00;17.92;;;;;;;-2.09;54.79;100568.31;147758;1144;104454;-74
2021/03/10 05:19:20;;;;;;;38.38;16.23;;;;;;;-2.13;54.99;100569.36;147866;1144;104620;-79
2021/03/10 05:22:25;;;;;;;35.28;15.88;;;;;;;-2.17;54.75;100571.25;147830;1144;104469;-72
2021/03/10 05:25:28;;;;;;;41.18;17.92;;;;;;;-2.14;54.99;100575.48;147865;1144;104470;-74
2021/03/10 05:28:31;;;;;;;40.70;17.37;;;;;;;-2.16;54.13;100579.94;147839;1143;104448;-73
2021/03/10 05:31:35;;;;;;;34.50;15.05;;;;;;;-2.15;54.52;100579.03;147807;1143;104452;-74
2021/03/10 05:34:38;;;;;;;40.23;16.93;;;;;;;-2.11;54.13;100582.38;147848;1144;104550;-77
2021/03/10 05:37:41;;;;;;;40.05;17.12;;;;;;;-2.09;55.12;100589.23;147836;1143;104905;-75
2021/03/10 05:40:45;;;;;;;37.77;16.30;;;;;;;-2.08;54.84;100592.69;147864;1144;104938;-74
2021/03/10 05:43:49;;;;;;;37.53;15.43;;;;;;;-2.02;54.19;100593.30;147858;1144;104456;-73
2021/03/10 05:46:53;;;;;;;46.13;18.12;;;;;;;-1.92;55.83;100590.30;147842;1144;104611;-77
2021/03/10 05:49:56;;;;;;;39.37;16.70;;;;;;;-1.80;54.98;100594.99;147741;1143;104544;-78
2021/03/10 05:53:02;;;;;;;196.35;79.92;;;;;;;-1.64;55.60;100593.39;147786;1145;104598;-77
2021/03/10 05:56:06;;;;;;;47.90;22.40;;;;;;;-1.51;54.40;100595.49;147841;1144;104930;-76
2021/03/10 05:59:09;;;;;;;35.25;16.50;;;;;;;-1.43;55.08;100591.60;147841;1145;104540;-81
2021/03/10 06:02:13;;;;;;;36.88;15.88;;;;;;;-1.26;55.37;100600.48;147791;1144;104597;-80
2021/03/10 06:05:21;;;;;;;42.85;18.95;;;;;;;-1.11;56.24;100606.80;147862;1144;104470;-81
2021/03/10 06:08:33;;;;;;;43.23;17.45;;;;;;;-0.96;54.87;100603.48;147715;1144;104490;-71
2021/03/10 06:11:36;;;;;;;39.20;16.40;;;;;;;-0.82;56.12;100608.07;147714;1145;104543;-71
2021/03/10 06:14:39;;;;;;;1192.67;474.13;;;;;;;-0.67;55.17;100611.75;147744;1144;104469;-72
2021/03/10 06:17:47;;;;;;;1308.43;514.67;;;;;;;-0.56;55.75;100609.44;147815;1144;104618;-78
2021/03/10 06:20:51;;;;;;;1715.08;635.33;;;;;;;-0.43;56.03;100610.55;147841;1143;104572;-71
2021/03/10 06:23:56;;;;;;;1375.08;527.45;;;;;;;-0.33;55.63;100613.57;147827;1144;104458;-73
2021/03/10 06:26:59;;;;;;;1999.90;781.52;;;;;;;-0.24;55.42;100620.16;147806;1144;104543;-74
2021/03/10 06:30:04;;;;;;;861.40;328.83;;;;;;;-0.19;55.22;100615.55;147864;1144;104560;-72
2021/03/10 06:33:08;;;;;;;808.42;336.00;;;;;;;-0.13;55.14;100617.02;147669;1144;104476;-74
2021/03/10 06:36:23;;;;;;;1811.43;692.87;;;;;;;-0.10;55.49;100622.94;147749;1144;104890;-75
2021/03/10 06:39:28;;;;;;;431.97;170.75;;;;;;;-0.05;55.26;100622.73;147872;1144;104545;-72
2021/03/10 06:42:31;;;;;;;1080.33;507.47;;;;;;;-0.02;55.77;100622.55;147991;1142;104448;-73
2021/03/10 06:45:35;;;;;;;483.57;202.55;;;;;;;-0.02;55.37;100626.05;147856;1144;104577;-72
2021/03/10 06:48:38;;;;;;;607.95;295.63;;;;;;;0.06;55.26;100627.42;147863;1144;104652;-74
2021/03/10 06:51:52;;;;;;;795.05;401.67;;;;;;;0.09;55.16;100635.99;147722;1143;104649;-74
2021/03/10 06:54:57;;;;;;;326.15;139.28;;;;;;;0.14;55.60;100636.63;147760;1144;104449;-72
2021/03/10 06:58:00;;;;;;;625.47;312.63;;;;;;;0.22;55.38;100636.23;147708;1144;104473;-72
2021/03/10 07:01:04;;;;;;;246.07;101.75;;;;;;;0.23;55.57;100643.16;147803;1144;104465;-73
2021/03/10 07:04:09;;;;;;;201.00;90.10;;;;;;;0.27;55.29;100638.61;147754;1144;104962;-72
2021/03/10 07:07:13;;;;;;;353.02;173.60;;;;;;;0.30;55.19;100643.72;147834;1143;104598;-71
2021/03/10 07:10:18;;;;;;;252.17;123.27;;;;;;;0.34;55.14;100643.47;147732;1144;104547;-70
2021/03/10 07:13:21;;;;;;;110.88;54.60;;;;;;;0.43;55.04;100643.95;147737;1144;104953;-72
2021/03/10 07:16:26;;;;;;;182.00;93.67;;;;;;;0.51;54.85;100649.65;147759;1144;104546;-73
2021/03/10 07:19:29;;;;;;;86.80;43.05;;;;;;;0.61;55.04;100650.02;147716;1144;104624;-73
2021/03/10 07:22:37;;;;;;;94.55;54.63;;;;;;;0.68;55.03;100652.25;147819;1144;104547;-75
2021/03/10 07:25:44;;;;;;;77.03;39.55;;;;;;;0.77;54.55;100653.53;147593;1143;104544;-73
2021/03/10 07:28:51;;;;;;;83.97;44.18;;;;;;;0.86;54.82;100654.84;147639;1144;104524;-73
2021/03/10 07:32:02;;;;;;;48.45;22.67;;;;;;;0.95;54.81;100654.36;147941;1143;105261;-72
2021/03/10 07:35:08;;;;;;;70.15;37.20;;;;;;;1.00;54.74;100647.05;147774;1144;104540;-73
2021/03/10 07:38:12;;;;;;;47.10;22.35;;;;;;;1.05;54.36;100652.92;147827;1144;104551;-75
2021/03/10 07:41:17;;;;;;;51.48;25.25;;;;;;;1.11;54.86;100651.75;147763;1144;104448;-74
2021/03/10 07:44:23;;;;;;;47.90;23.90;;;;;;;1.27;54.76;100665.77;147685;1144;104594;-71
2021/03/10 07:47:28;;;;;;;44.88;21.33;;;;;;;1.44;55.07;100659.56;147541;1144;104944;-74
2021/03/10 07:50:40;;;;;;;41.20;20.32;;;;;;;1.61;54.88;100663.05;147721;1144;104621;-72
2021/03/10 07:53:44;;;;;;;38.83;19.02;;;;;;;1.70;54.80;100658.13;147650;1143;104557;-74
2021/03/10 07:56:47;;;;;;;40.33;19.63;;;;;;;1.77;54.67;100663.87;147844;1144;104541;-73
2021/03/10 07:59:55;;;;;;;542.17;245.33;;;;;;;1.88;54.25;100669.38;147746;1144;104576;-71
2021/03/10 08:02:58;;;;;;;422.87;196.18;;;;;;;1.93;53.55;100666.50;147832;1144;104552;-74
2021/03/10 08:06:03;;;;;;;131.77;62.67;;;;;;;2.01;53.95;100666.06;147959;1144;104539;-72
2021/03/10 08:09:07;;;;;;;325.03;186.83;;;;;;;2.07;53.47;100670.97;147800;1143;104489;-71
2021/03/10 08:12:12;;;;;;;232.05;129.70;;;;;;;2.16;54.18;100665.18;147847;1144;104511;-73
2021/03/10 08:15:22;;;;;;;390.33;233.13;;;;;;;2.24;53.12;100662.09;147750;1143;104464;-74
2021/03/10 08:18:27;;;;;;;436.27;273.77;;;;;;;2.36;53.42;100672.74;147804;1144;104503;-71
2021/03/10 08:21:31;;;;;;;321.25;197.85;;;;;;;2.54;53.17;100670.83;147690;1144;104539;-73
2021/03/10 08:24:36;;;;;;;149.90;89.65;;;;;;;2.69;53.81;100661.13;147911;1144;104540;-77
2021/03/10 08:27:41;;;;;;;104.43;64.60;;;;;;;2.85;53.39;100662.84;147836;1143;104540;-78
2021/03/10 08:30:44;;;;;;;59.05;32.80;;;;;;;2.92;53.37;100670.28;147898;1144;104558;-75
2021/03/10 08:33:49;;;;;;;53.90;30.60;;;;;;;3.04;53.48;100658.16;147804;1144;104500;-79
2021/03/10 08:36:53;;;;;;;91.60;52.90;;;;;;;3.18;53.41;100661.73;147812;1144;104630;-75
2021/03/10 08:39:56;;;;;;;84.35;53.92;;;;;;;3.28;53.90;100660.20;147948;1144;104477;-75
2021/03/10 08:43:00;;;;;;;50.73;27.00;;;;;;;3.38;53.11;100661.31;147714;1143;104436;-74
2021/03/10 08:46:04;;;;;;;41.85;24.35;;;;;;;3.49;52.49;100664.11;147809;1143;104543;-77
2021/03/10 08:49:22;;;;;;;52.25;31.20;;;;;;;3.55;53.56;100662.88;147789;1144;104478;-76
2021/03/10 08:52:27;;;;;;;119.40;49.83;;;;;;;3.62;53.82;100655.41;147841;1144;104620;-77
2021/03/10 08:55:34;;;;;;;57.05;30.50;;;;;;;3.74;51.91;100657.27;147775;1143;104474;-73
2021/03/10 08:58:37;;;;;;;49.83;26.42;;;;;;;3.81;53.17;100666.49;147784;1143;104466;-77
2021/03/10 09:01:47;;;;;;;38.15;21.37;;;;;;;3.96;53.39;100669.06;147804;1144;104457;-75
2021/03/10 09:04:52;;;;;;;37.83;20.27;;;;;;;4.08;51.99;100663.84;147738;1143;104959;-76
2021/03/10 09:07:56;;;;;;;31.57;18.75;;;;;;;4.19;51.33;100656.98;147668;1144;104620;-78
2021/03/10 09:11:00;;;;;;;53.83;24.60;;;;;;;4.24;51.96;100660.18;147710;1144;104519;-76
2021/03/10 09:14:19;;;;;;;59.20;26.57;;;;;;;4.30;51.90;100660.60;147793;1144;104476;-76
2021/03/10 09:17:36;;;;;;;266.75;97.10;;;;;;;4.46;51.61;100659.56;147862;1143;104531;-74
2021/03/10 09:20:41;;;;;;;405.07;157.75;;;;;;;4.50;50.76;100661.05;147775;1144;104630;-76
2021/03/10 09:23:47;;;;;;;332.57;121.92;;;;;;;4.49;51.44;100662.02;147833;1144;104822;-75
2021/03/10 09:26:50;;;;;;;251.00;93.90;;;;;;;4.60;51.41;100667.42;147913;1144;104590;-78
2021/03/10 09:29:57;;;;;;;278.37;110.65;;;;;;;4.66;50.54;100661.71;147718;1144;104435;-75
2021/03/10 09:33:02;;;;;;;412.90;183.70;;;;;;;4.70;50.85;100667.64;147774;1144;104451;-75
2021/03/10 09:36:08;;;;;;;281.10;113.37;;;;;;;4.77;50.46;100668.88;147741;1144;104486;-75
2021/03/10 09:39:17;;;;;;;120.80;51.77;;;;;;;4.88;50.66;100660.23;147743;1143;104540;-75
2021/03/10 09:42:30;;;;;;;72.60;32.55;;;;;;;5.02;50.92;100672.48;147761;1144;104510;-76
2021/03/10 09:45:41;;;;;;;97.42;43.92;;;;;;;5.08;49.88;100667.63;147751;1144;104465;-74
2021/03/10 09:48:44;;;;;;;92.63;41.70;;;;;;;5.11;49.44;100679.78;147690;1144;104849;-77
2021/03/10 09:51:53;;;;;;;87.70;40.40;;;;;;;5.11;49.58;100680.62;147706;1144;104522;-78
2021/03/10 09:55:00;;;;;;;52.08;24.85;;;;;;;5.11;50.05;100682.42;147701;1144;104880;-76
2021/03/10 09:58:09;;;;;;;121.70;56.47;;;;;;;5.17;49.54;100681.16;147889;1144;104444;-77
2021/03/10 10:01:18;;;;;;;288.42;124.33;;;;;;;5.18;50.02;100683.70;147778;1144;104522;-79
2021/03/10 10:04:28;;;;;;;105.35;49.63;;;;;;;5.28;49.94;100678.59;147717;1144;104543;-79
2021/03/10 10:07:32;;;;;;;82.53;41.13;;;;;;;5.30;49.71;100687.27;147712;1143;104543;-83
2021/03/10 10:10:43;;;;;;;129.38;65.28;;;;;;;5.37;49.42;100688.54;147834;1143;104527;-75
2021/03/10 10:13:49;;;;;;;43.77;20.50;;;;;;;5.35;48.40;100681.64;147895;1143;104563;-79
2021/03/10 10:16:53;;;;;;;224.55;95.28;;;;;;;5.25;48.99;100684.96;147841;1143;104447;-76
2021/03/10 10:19:59;;;;;;;176.10;75.17;;;;;;;5.15;47.61;100683.06;147711;1143;104534;-73
2021/03/10 10:23:04;;;;;;;266.25;122.98;;;;;;;5.02;47.88;100673.35;147852;1144;104547;-76
2021/03/10 10:26:11;;;;;;;57.97;26.47;;;;;;;4.94;48.37;100675.66;147929;1144;104649;-75
2021/03/10 10:29:17;;;;;;;416.23;231.20;;;;;;;4.85;48.03;100676.29;147826;1144;104898;-82
2021/03/10 10:32:23;;;;;;;214.32;95.42;;;;;;;4.82;48.12;100681.81;147793;1144;104518;-78
2021/03/10 10:35:28;;;;;;;121.75;57.78;;;;;;;4.71;47.58;100683.41;147809;1143;104474;-75
2021/03/10 10:38:32;;;;;;;63.25;32.70;;;;;;;4.67;47.45;100695.11;147790;1144;104497;-74
2021/03/10 10:41:37;;;;;;;32.58;17.95;;;;;;;4.65;47.64;100682.95;147841;1144;104636;-75
2021/03/10 10:44:42;;;;;;;91.57;47.50;;;;;;;4.63;47.68;100687.50;148127;1144;104460;-74
2021/03/10 10:47:47;;;;;;;126.18;66.12;;;;;;;4.63;47.63;100690.98;147894;1142;104879;-74
2021/03/10 10:50:55;;;;;;;105.95;51.98;;;;;;;4.62;47.00;100683.16;147762;1144;104540;-73
2021/03/10 10:54:01;;;;;;;55.90;28.37;;;;;;;4.61;46.55;100682.31;148206;1143;104925;-78
2021/03/10 10:57:06;;;;;;;35.95;19.52;;;;;;;4.60;47.55;100682.41;148541;1143;104475;-79
2021/03/10 11:00:20;;;;;;;39.42;22.32;;;;;;;4.62;47.47;100680.51;149088;1143;104439;-78
2021/03/10 11:03:25;;;;;;;47.03;26.52;;;;;;;4.62;47.80;100678.73;148620;1144;104543;-77
2021/03/10 11:06:30;;;;;;;18.37;11.28;;;;;;;4.61;46.69;100673.55;148234;1144;104447;-77
2021/03/10 11:09:36;;;;;;;25.90;15.20;;;;;;;4.52;46.87;100667.08;148365;1142;104522;-80
2021/03/10 11:12:41;;;;;;;20.57;12.88;;;;;;;4.58;46.53;100679.03;148076;1144;104751;-80
2021/03/10 11:15:46;;;;;;;53.33;32.70;;;;;;;4.67;46.85;100667.84;148114;1144;104501;-76
2021/03/10 11:19:04;;;;;;;47.53;30.62;;;;;;;4.78;46.98;100665.30;147934;1143;104459;-77
2021/03/10 11:22:08;;;;;;;52.45;33.75;;;;;;;4.91;46.91;100657.38;148418;1144;104573;-76
2021/03/10 11:25:14;;;;;;;31.20;20.23;;;;;;;5.01;45.50;100661.06;147880;1144;104500;-75
2021/03/10 11:28:18;;;;;;;56.55;35.98;;;;;;;5.07;46.21;100655.34;147866;1143;104532;-74
2021/03/10 11:31:22;;;;;;;33.10;20.23;;;;;;;5.11;46.13;100667.39;147912;1144;105102;-74
2021/03/10 11:34:26;;;;;;;47.80;31.07;;;;;;;5.20;46.32;100659.78;147751;1143;104489;-76
2021/03/10 11:37:29;;;;;;;234.22;138.80;;;;;;;5.35;46.42;100663.12;147921;1143;104803;-76
2021/03/10 11:40:33;;;;;;;57.93;30.85;;;;;;;5.49;46.66;100660.34;147861;1143;104540;-76
2021/03/10 11:43:37;;;;;;;28.70;16.20;;;;;;;5.56;46.49;100655.44;147819;1143;104639;-75
2021/03/10 11:46:40;;;;;;;26.23;15.77;;;;;;;5.56;46.25;100652.80;147966;1143;104510;-78
2021/03/10 11:49:43;;;;;;;28.05;18.80;;;;;;;5.55;45.35;100648.47;147941;1143;104543;-71
2021/03/10 11:52:47;;;;;;;22.33;15.20;;;;;;;5.52;46.26;100638.93;147776;1143;104474;-74
2021/03/10 11:55:50;;;;;;;33.88;21.77;;;;;;;5.43;46.21;100643.10;147880;1144;104546;-76
2021/03/10 11:58:53;;;;;;;22.13;14.63;;;;;;;5.31;46.04;100641.31;147820;1144;104543;-75
2021/03/10 12:02:22;;;;;;;56.98;36.68;;;;;;;5.16;45.99;100629.19;147863;1144;104500;-75
2021/03/10 12:05:30;;;;;;;29.42;16.65;;;;;;;5.09;45.85;100616.40;147798;1142;104470;-80
2021/03/10 12:08:33;;;;;;;24.30;14.83;;;;;;;5.00;45.48;100616.20;147851;1142;104473;-77
2021/03/10 12:11:37;;;;;;;23.57;15.25;;;;;;;4.91;45.84;100613.27;147828;1143;104451;-79
2021/03/10 12:14:40;;;;;;;46.23;32.83;;;;;;;4.83;44.55;100614.74;147927;1143;104522;-75
2021/03/10 12:17:43;;;;;;;42.00;30.35;;;;;;;4.77;44.61;100604.60;147884;1143;104573;-76
2021/03/10 12:20:48;;;;;;;21.80;15.20;;;;;;;4.88;45.62;100617.92;147844;1143;104476;-75
2021/03/10 12:23:51;;;;;;;23.60;16.52;;;;;;;5.01;45.25;100612.63;147741;1143;104446;-72
2021/03/10 12:26:54;;;;;;;22.43;14.83;;;;;;;5.14;45.41;100602.86;147798;1143;104469;-75
2021/03/10 12:29:58;;;;;;;20.80;15.10;;;;;;;5.29;45.00;100592.95;147961;1143;104666;-74
2021/03/10 12:33:01;;;;;;;20.07;14.73;;;;;;;5.46;45.03;100603.16;147987;1144;104603;-75
2021/03/10 12:36:06;;;;;;;18.73;13.10;;;;;;;5.66;45.37;100601.72;147817;1144;105157;-74
2021/03/10 12:39:09;;;;;;;18.62;13.08;;;;;;;5.79;44.43;100604.30;147917;1142;104467;-76
2021/03/10 12:42:13;;;;;;;22.07;13.77;;;;;;;5.89;44.12;100599.19;147814;1143;104460;-80
2021/03/10 12:45:18;;;;;;;21.07;13.25;;;;;;;5.92;44.15;100603.39;147930;1144;104559;-76
2021/03/10 12:48:21;;;;;;;31.40;16.90;;;;;;;6.01;43.86;100603.58;147908;1144;104857;-77
2021/03/10 12:51:25;;;;;;;20.45;13.53;;;;;;;6.12;43.87;100589.55;147814;1143;104469;-76
2021/03/10 12:54:28;;;;;;;21.10;13.83;;;;;;;6.16;44.67;100606.02;147892;1144;104590;-76
2021/03/10 12:57:31;;;;;;;247.52;132.60;;;;;;;6.15;43.86;100605.19;148039;1144;104466;-80
2021/03/10 13:00:34;;;;;;;51.73;30.17;;;;;;;6.20;44.95;100603.05;148000;1144;104643;-84
2021/03/10 13:03:37;;;;;;;39.53;25.43;;;;;;;6.35;44.19;100602.83;147892;1143;104514;-84
2021/03/10 13:06:41;;;;;;;45.00;33.93;;;;;;;6.49;44.36;100597.33;147937;1144;104540;-79
2021/03/10 13:09:44;;;;;;;39.78;29.20;;;;;;;6.54;41.49;100591.66;147892;1144;104470;-82
2021/03/10 13:12:48;;;;;;;56.25;29.55;;;;;;;6.59;43.69;100598.29;147974;1144;104553;-82
2021/03/10 13:15:51;;;;;;;51.35;38.63;;;;;;;6.63;44.41;100602.39;147888;1143;104516;-77
2021/03/10 13:18:54;;;;;;;28.00;19.30;;;;;;;6.65;42.64;100602.28;147931;1144;104469;-81
2021/03/10 13:21:57;;;;;;;29.92;20.62;;;;;;;6.66;43.19;100599.52;147789;1143;104572;-75
2021/03/10 13:25:00;;;;;;;43.73;27.30;;;;;;;6.72;43.73;100592.89;147826;1143;104460;-76
2021/03/10 13:28:04;;;;;;;199.60;104.67;;;;;;;6.72;43.80;100594.67;147745;1142;104469;-75
2021/03/10 13:31:08;;;;;;;435.17;265.13;;;;;;;6.76;43.31;100593.50;147825;1144;104645;-75
2021/03/10 13:34:11;;;;;;;124.62;61.23;;;;;;;6.79;43.54;100604.68;147828;1143;104554;-72
2021/03/10 13:37:14;;;;;;;71.33;41.95;;;;;;;6.76;43.08;100598.80;147828;1144;104469;-83
2021/03/10 13:40:18;;;;;;;39.75;24.18;;;;;;;6.67;44.01;100597.70;147755;1143;104473;-80
2021/03/10 13:43:22;;;;;;;64.57;39.03;;;;;;;6.67;43.05;100595.88;147868;1144;104546;-77